YCV weather

CLOSED Cartierville Airport
Montreal, Quebec, Canada

Public forecast

Using degrees Celsius for public forecast. Weather courtesy of forecast.io.

METAR (pilot weather report)

Closest report is Montreal / Pierre Elliott Trudeau International Airport, 2.9 nm (5.5 km) SSW. Retrieved 2019/05/21 09:21 UTC (36 minutes ago):

CYUL 210921Z 27012G22KT 15SM FEW020 BKN030 08/05 A2979 RMK CU1SC5 CU TR SLP089

TAF (pilot weather forecast)

Closest forecast is Montreal / Pierre Elliott Trudeau International Airport, 2.9 nm (5.5 km) SSW. Retrieved 2019/05/21 09:42 UTC (15 minutes ago):

TAF CYUL 210838Z 2109/2206 27012G22KT P6SM SCT020 BKN040 TEMPO 2109/2111 P6SM -SHRA BKN020 BKN040 FM211100 28012G22KT P6SM BKN030 TEMPO 2111/2118 BKN020 BECMG 2111/2113 29018G30KT FM211800 31020G32KT P6SM BKN050 BECMG 2122/2124 32012G22KT FM220300 32008KT P6SM SCT060 RMK NXT FCST BY 211200Z